sensor_id;sensor_type;location;lat;lon;timestamp;P1;durP1;ratioP1;P2;durP2;ratioP2
6791;SDS011;3433;48.730;9.108;2023-02-15T00:02:22;36.23;;;16.57;;
6791;SDS011;3433;48.730;9.108;2023-02-15T00:05:10;38.33;;;18.17;;
6791;SDS011;3433;48.730;9.108;2023-02-15T00:07:57;37.53;;;18.60;;
6791;SDS011;3433;48.730;9.108;2023-02-15T00:10:45;34.47;;;17.80;;
6791;SDS011;3433;48.730;9.108;2023-02-15T00:13:32;39.53;;;19.37;;
6791;SDS011;3433;48.730;9.108;2023-02-15T00:16:21;38.07;;;19.80;;
6791;SDS011;3433;48.730;9.108;2023-02-15T00:19:09;38.77;;;18.40;;
6791;SDS011;3433;48.730;9.108;2023-02-15T00:21:57;34.67;;;18.50;;
6791;SDS011;3433;48.730;9.108;2023-02-15T00:24:44;35.40;;;17.10;;
6791;SDS011;3433;48.730;9.108;2023-02-15T00:27:34;36.93;;;18.03;;
6791;SDS011;3433;48.730;9.108;2023-02-15T00:30:21;33.37;;;16.77;;
6791;SDS011;3433;48.730;9.108;2023-02-15T00:33:08;31.33;;;16.30;;
6791;SDS011;3433;48.730;9.108;2023-02-15T00:35:56;31.63;;;16.40;;
6791;SDS011;3433;48.730;9.108;2023-02-15T00:38:43;34.60;;;17.37;;
6791;SDS011;3433;48.730;9.108;2023-02-15T00:41:30;38.93;;;17.30;;
6791;SDS011;3433;48.730;9.108;2023-02-15T00:44:19;37.03;;;18.10;;
6791;SDS011;3433;48.730;9.108;2023-02-15T00:47:06;31.53;;;16.20;;
6791;SDS011;3433;48.730;9.108;2023-02-15T00:49:53;29.97;;;17.10;;
6791;SDS011;3433;48.730;9.108;2023-02-15T00:52:40;35.70;;;17.07;;
6791;SDS011;3433;48.730;9.108;2023-02-15T00:55:28;32.17;;;16.70;;
6791;SDS011;3433;48.730;9.108;2023-02-15T00:58:15;35.63;;;18.13;;
6791;SDS011;3433;48.730;9.108;2023-02-15T01:01:05;34.10;;;17.70;;
6791;SDS011;3433;48.730;9.108;2023-02-15T01:03:53;29.67;;;15.90;;
6791;SDS011;3433;48.730;9.108;2023-02-15T01:06:40;29.83;;;16.60;;
6791;SDS011;3433;48.730;9.108;2023-02-15T01:09:28;30.13;;;16.80;;
6791;SDS011;3433;48.730;9.108;2023-02-15T01:12:15;34.23;;;16.00;;
6791;SDS011;3433;48.730;9.108;2023-02-15T01:15:02;33.10;;;15.90;;
6791;SDS011;3433;48.730;9.108;2023-02-15T01:17:51;34.17;;;16.90;;
6791;SDS011;3433;48.730;9.108;2023-02-15T01:20:39;30.07;;;16.50;;
6791;SDS011;3433;48.730;9.108;2023-02-15T01:23:26;28.80;;;16.37;;
6791;SDS011;3433;48.730;9.108;2023-02-15T01:26:14;27.73;;;14.43;;
6791;SDS011;3433;48.730;9.108;2023-02-15T01:29:01;27.80;;;15.13;;
6791;SDS011;3433;48.730;9.108;2023-02-15T01:31:49;37.30;;;17.10;;
6791;SDS011;3433;48.730;9.108;2023-02-15T01:34:37;30.47;;;15.80;;
6791;SDS011;3433;48.730;9.108;2023-02-15T01:37:24;28.33;;;14.80;;
6791;SDS011;3433;48.730;9.108;2023-02-15T01:40:13;31.30;;;14.43;;
6791;SDS011;3433;48.730;9.108;2023-02-15T01:43:02;32.17;;;15.87;;
6791;SDS011;3433;48.730;9.108;2023-02-15T01:45:49;26.97;;;15.27;;
6791;SDS011;3433;48.730;9.108;2023-02-15T01:48:36;29.03;;;14.80;;
6791;SDS011;3433;48.730;9.108;2023-02-15T01:51:33;29.13;;;14.83;;
6791;SDS011;3433;48.730;9.108;2023-02-15T01:54:23;26.43;;;14.40;;
6791;SDS011;3433;48.730;9.108;2023-02-15T01:57:16;24.47;;;13.60;;
6791;SDS011;3433;48.730;9.108;2023-02-15T02:00:06;29.13;;;14.33;;
6791;SDS011;3433;48.730;9.108;2023-02-15T02:02:55;27.20;;;13.77;;
6791;SDS011;3433;48.730;9.108;2023-02-15T02:05:43;25.90;;;13.87;;
6791;SDS011;3433;48.730;9.108;2023-02-15T02:08:31;29.77;;;14.97;;
6791;SDS011;3433;48.730;9.108;2023-02-15T02:11:19;27.30;;;13.67;;
6791;SDS011;3433;48.730;9.108;2023-02-15T02:14:06;27.97;;;14.10;;
6791;SDS011;3433;48.730;9.108;2023-02-15T02:16:56;28.90;;;13.47;;
6791;SDS011;3433;48.730;9.108;2023-02-15T02:20:10;29.30;;;15.10;;
6791;SDS011;3433;48.730;9.108;2023-02-15T02:23:15;26.07;;;14.07;;
6791;SDS011;3433;48.730;9.108;2023-02-15T02:26:20;28.07;;;15.03;;
6791;SDS011;3433;48.730;9.108;2023-02-15T02:36:14;27.27;;;13.50;;
6791;SDS011;3433;48.730;9.108;2023-02-15T02:39:09;24.90;;;13.50;;
6791;SDS011;3433;48.730;9.108;2023-02-15T02:42:09;26.13;;;13.73;;
6791;SDS011;3433;48.730;9.108;2023-02-15T02:45:03;29.20;;;13.90;;
6791;SDS011;3433;48.730;9.108;2023-02-15T02:47:56;26.80;;;14.23;;
6791;SDS011;3433;48.730;9.108;2023-02-15T02:50:47;29.77;;;12.97;;
6791;SDS011;3433;48.730;9.108;2023-02-15T02:53:36;24.60;;;13.73;;
6791;SDS011;3433;48.730;9.108;2023-02-15T02:56:24;26.37;;;14.70;;
6791;SDS011;3433;48.730;9.108;2023-02-15T02:59:17;29.83;;;14.30;;
6791;SDS011;3433;48.730;9.108;2023-02-15T03:02:07;26.10;;;13.60;;
6791;SDS011;3433;48.730;9.108;2023-02-15T03:05:01;27.40;;;14.83;;
6791;SDS011;3433;48.730;9.108;2023-02-15T03:07:52;29.43;;;14.50;;
6791;SDS011;3433;48.730;9.108;2023-02-15T03:10:43;23.57;;;12.70;;
6791;SDS011;3433;48.730;9.108;2023-02-15T03:13:31;29.10;;;14.60;;
6791;SDS011;3433;48.730;9.108;2023-02-15T03:16:19;24.63;;;14.20;;
6791;SDS011;3433;48.730;9.108;2023-02-15T03:19:14;33.50;;;14.90;;
6791;SDS011;3433;48.730;9.108;2023-02-15T03:22:06;28.47;;;15.83;;
6791;SDS011;3433;48.730;9.108;2023-02-15T03:24:58;29.80;;;14.30;;
6791;SDS011;3433;48.730;9.108;2023-02-15T03:27:51;32.70;;;14.63;;
6791;SDS011;3433;48.730;9.108;2023-02-15T03:30:42;26.90;;;13.90;;
6791;SDS011;3433;48.730;9.108;2023-02-15T03:33:32;24.40;;;13.07;;
6791;SDS011;3433;48.730;9.108;2023-02-15T03:36:25;28.73;;;14.80;;
6791;SDS011;3433;48.730;9.108;2023-02-15T03:39:18;24.60;;;13.70;;
6791;SDS011;3433;48.730;9.108;2023-02-15T03:42:10;26.80;;;14.17;;
6791;SDS011;3433;48.730;9.108;2023-02-15T03:45:02;31.13;;;15.47;;
6791;SDS011;3433;48.730;9.108;2023-02-15T03:47:52;34.97;;;15.63;;
6791;SDS011;3433;48.730;9.108;2023-02-15T03:50:42;27.93;;;14.07;;
6791;SDS011;3433;48.730;9.108;2023-02-15T03:53:47;31.10;;;14.67;;
6791;SDS011;3433;48.730;9.108;2023-02-15T03:56:36;27.17;;;14.10;;
6791;SDS011;3433;48.730;9.108;2023-02-15T03:59:25;23.57;;;12.73;;
6791;SDS011;3433;48.730;9.108;2023-02-15T04:02:37;25.20;;;14.83;;
6791;SDS011;3433;48.730;9.108;2023-02-15T04:05:31;26.53;;;13.03;;
6791;SDS011;3433;48.730;9.108;2023-02-15T04:08:18;29.37;;;14.43;;
6791;SDS011;3433;48.730;9.108;2023-02-15T04:11:05;30.43;;;14.83;;
6791;SDS011;3433;48.730;9.108;2023-02-15T04:13:51;30.40;;;15.27;;
6791;SDS011;3433;48.730;9.108;2023-02-15T04:16:43;28.10;;;16.97;;
6791;SDS011;3433;48.730;9.108;2023-02-15T04:19:30;39.53;;;18.90;;
6791;SDS011;3433;48.730;9.108;2023-02-15T04:22:35;30.20;;;16.00;;
6791;SDS011;3433;48.730;9.108;2023-02-15T04:25:40;35.20;;;17.93;;
6791;SDS011;3433;48.730;9.108;2023-02-15T04:28:27;31.37;;;15.50;;
6791;SDS011;3433;48.730;9.108;2023-02-15T04:31:15;26.13;;;15.23;;
6791;SDS011;3433;48.730;9.108;2023-02-15T04:34:02;27.70;;;15.37;;
6791;SDS011;3433;48.730;9.108;2023-02-15T04:36:50;30.53;;;15.77;;
6791;SDS011;3433;48.730;9.108;2023-02-15T04:39:38;25.80;;;14.40;;
6791;SDS011;3433;48.730;9.108;2023-02-15T04:42:25;31.00;;;15.07;;
6791;SDS011;3433;48.730;9.108;2023-02-15T04:45:12;29.30;;;15.37;;
6791;SDS011;3433;48.730;9.108;2023-02-15T04:48:00;27.03;;;14.00;;
6791;SDS011;3433;48.730;9.108;2023-02-15T04:50:47;31.63;;;15.27;;
6791;SDS011;3433;48.730;9.108;2023-02-15T04:53:35;23.87;;;13.87;;
6791;SDS011;3433;48.730;9.108;2023-02-15T04:56:23;27.70;;;14.93;;
6791;SDS011;3433;48.730;9.108;2023-02-15T04:59:10;32.90;;;14.87;;
6791;SDS011;3433;48.730;9.108;2023-02-15T05:01:57;24.03;;;13.83;;
6791;SDS011;3433;48.730;9.108;2023-02-15T05:04:45;27.63;;;15.30;;
6791;SDS011;3433;48.730;9.108;2023-02-15T05:07:32;29.03;;;15.40;;
6791;SDS011;3433;48.730;9.108;2023-02-15T05:10:20;28.63;;;14.00;;
6791;SDS011;3433;48.730;9.108;2023-02-15T05:13:08;29.50;;;14.57;;
6791;SDS011;3433;48.730;9.108;2023-02-15T05:15:55;24.40;;;13.60;;
6791;SDS011;3433;48.730;9.108;2023-02-15T05:18:42;35.30;;;15.30;;
6791;SDS011;3433;48.730;9.108;2023-02-15T05:21:29;32.93;;;14.80;;
6791;SDS011;3433;48.730;9.108;2023-02-15T05:24:17;28.20;;;13.83;;
6791;SDS011;3433;48.730;9.108;2023-02-15T05:27:23;25.37;;;14.13;;
6791;SDS011;3433;48.730;9.108;2023-02-15T05:30:28;22.60;;;13.87;;
6791;SDS011;3433;48.730;9.108;2023-02-15T05:33:16;29.50;;;13.40;;
6791;SDS011;3433;48.730;9.108;2023-02-15T05:36:03;27.00;;;14.83;;
6791;SDS011;3433;48.730;9.108;2023-02-15T05:38:51;25.10;;;14.03;;
6791;SDS011;3433;48.730;9.108;2023-02-15T05:41:38;28.20;;;14.13;;
6791;SDS011;3433;48.730;9.108;2023-02-15T05:44:27;26.27;;;15.30;;
6791;SDS011;3433;48.730;9.108;2023-02-15T05:47:14;29.67;;;14.10;;
6791;SDS011;3433;48.730;9.108;2023-02-15T05:50:02;31.53;;;15.37;;
6791;SDS011;3433;48.730;9.108;2023-02-15T05:52:49;27.77;;;13.87;;
6791;SDS011;3433;48.730;9.108;2023-02-15T05:55:37;24.97;;;13.93;;
6791;SDS011;3433;48.730;9.108;2023-02-15T05:58:25;25.80;;;13.90;;
6791;SDS011;3433;48.730;9.108;2023-02-15T06:01:14;32.80;;;15.50;;
6791;SDS011;3433;48.730;9.108;2023-02-15T06:04:03;28.37;;;15.40;;
6791;SDS011;3433;48.730;9.108;2023-02-15T06:06:51;31.47;;;16.67;;
6791;SDS011;3433;48.730;9.108;2023-02-15T06:09:38;40.80;;;20.43;;
6791;SDS011;3433;48.730;9.108;2023-02-15T06:12:25;60.07;;;21.77;;
6791;SDS011;3433;48.730;9.108;2023-02-15T06:15:13;46.60;;;18.40;;
6791;SDS011;3433;48.730;9.108;2023-02-15T06:18:01;36.73;;;16.87;;
6791;SDS011;3433;48.730;9.108;2023-02-15T06:20:49;30.77;;;15.57;;
6791;SDS011;3433;48.730;9.108;2023-02-15T06:23:36;38.07;;;17.30;;
6791;SDS011;3433;48.730;9.108;2023-02-15T06:26:23;38.70;;;15.83;;
6791;SDS011;3433;48.730;9.108;2023-02-15T06:29:11;27.97;;;16.30;;
6791;SDS011;3433;48.730;9.108;2023-02-15T06:31:58;31.93;;;17.30;;
6791;SDS011;3433;48.730;9.108;2023-02-15T06:34:46;29.17;;;15.47;;
6791;SDS011;3433;48.730;9.108;2023-02-15T06:37:34;27.50;;;14.30;;
6791;SDS011;3433;48.730;9.108;2023-02-15T06:40:21;31.30;;;14.60;;
6791;SDS011;3433;48.730;9.108;2023-02-15T06:43:08;31.53;;;14.60;;
6791;SDS011;3433;48.730;9.108;2023-02-15T06:45:55;28.30;;;13.93;;
6791;SDS011;3433;48.730;9.108;2023-02-15T06:48:43;32.03;;;14.30;;
6791;SDS011;3433;48.730;9.108;2023-02-15T06:51:31;27.13;;;14.13;;
6791;SDS011;3433;48.730;9.108;2023-02-15T06:54:19;28.80;;;15.10;;
6791;SDS011;3433;48.730;9.108;2023-02-15T06:57:06;32.20;;;13.97;;
6791;SDS011;3433;48.730;9.108;2023-02-15T06:59:54;30.30;;;14.83;;
6791;SDS011;3433;48.730;9.108;2023-02-15T07:02:43;38.43;;;15.93;;
6791;SDS011;3433;48.730;9.108;2023-02-15T07:05:32;32.43;;;15.87;;
6791;SDS011;3433;48.730;9.108;2023-02-15T07:08:22;36.37;;;17.00;;
6791;SDS011;3433;48.730;9.108;2023-02-15T07:11:09;37.60;;;17.23;;
6791;SDS011;3433;48.730;9.108;2023-02-15T07:14:14;40.17;;;22.27;;
6791;SDS011;3433;48.730;9.108;2023-02-15T07:17:01;47.63;;;22.03;;
6791;SDS011;3433;48.730;9.108;2023-02-15T07:19:49;40.23;;;20.70;;
6791;SDS011;3433;48.730;9.108;2023-02-15T07:22:36;40.23;;;20.40;;
6791;SDS011;3433;48.730;9.108;2023-02-15T07:25:25;43.33;;;18.07;;
6791;SDS011;3433;48.730;9.108;2023-02-15T07:28:15;38.07;;;20.27;;
6791;SDS011;3433;48.730;9.108;2023-02-15T07:31:02;58.53;;;23.40;;
6791;SDS011;3433;48.730;9.108;2023-02-15T07:33:50;42.83;;;22.03;;
6791;SDS011;3433;48.730;9.108;2023-02-15T07:36:37;43.50;;;19.70;;
6791;SDS011;3433;48.730;9.108;2023-02-15T07:39:25;34.63;;;18.00;;
6791;SDS011;3433;48.730;9.108;2023-02-15T07:42:13;38.00;;;17.63;;
6791;SDS011;3433;48.730;9.108;2023-02-15T07:45:01;30.90;;;17.13;;
6791;SDS011;3433;48.730;9.108;2023-02-15T07:47:48;33.77;;;18.10;;
6791;SDS011;3433;48.730;9.108;2023-02-15T07:50:36;34.30;;;19.10;;
6791;SDS011;3433;48.730;9.108;2023-02-15T07:53:23;34.97;;;18.63;;
6791;SDS011;3433;48.730;9.108;2023-02-15T07:56:11;36.87;;;18.10;;
6791;SDS011;3433;48.730;9.108;2023-02-15T07:59:02;38.50;;;18.37;;
6791;SDS011;3433;48.730;9.108;2023-02-15T08:01:50;37.90;;;18.77;;
6791;SDS011;3433;48.730;9.108;2023-02-15T08:04:39;34.43;;;19.13;;
6791;SDS011;3433;48.730;9.108;2023-02-15T08:07:27;36.03;;;20.63;;
6791;SDS011;3433;48.730;9.108;2023-02-15T08:10:14;33.03;;;18.20;;
6791;SDS011;3433;48.730;9.108;2023-02-15T08:13:21;38.50;;;19.03;;
6791;SDS011;3433;48.730;9.108;2023-02-15T08:16:10;33.07;;;20.10;;
6791;SDS011;3433;48.730;9.108;2023-02-15T08:18:58;37.80;;;20.30;;
6791;SDS011;3433;48.730;9.108;2023-02-15T08:21:48;38.93;;;19.83;;
6791;SDS011;3433;48.730;9.108;2023-02-15T08:24:37;31.33;;;19.17;;
6791;SDS011;3433;48.730;9.108;2023-02-15T08:27:24;32.47;;;19.23;;
6791;SDS011;3433;48.730;9.108;2023-02-15T08:30:12;38.70;;;21.00;;
6791;SDS011;3433;48.730;9.108;2023-02-15T08:33:02;35.40;;;19.17;;
6791;SDS011;3433;48.730;9.108;2023-02-15T08:35:49;34.43;;;18.80;;
6791;SDS011;3433;48.730;9.108;2023-02-15T08:38:37;37.20;;;20.43;;
6791;SDS011;3433;48.730;9.108;2023-02-15T08:41:25;40.80;;;23.97;;
6791;SDS011;3433;48.730;9.108;2023-02-15T08:44:15;39.70;;;21.30;;
6791;SDS011;3433;48.730;9.108;2023-02-15T08:47:03;51.70;;;21.73;;
6791;SDS011;3433;48.730;9.108;2023-02-15T08:49:52;36.23;;;20.80;;
6791;SDS011;3433;48.730;9.108;2023-02-15T08:52:41;39.67;;;22.53;;
6791;SDS011;3433;48.730;9.108;2023-02-15T08:55:28;41.77;;;21.10;;
6791;SDS011;3433;48.730;9.108;2023-02-15T08:58:15;42.93;;;21.37;;
6791;SDS011;3433;48.730;9.108;2023-02-15T09:01:08;34.80;;;19.87;;
6791;SDS011;3433;48.730;9.108;2023-02-15T09:03:57;48.07;;;23.47;;
6791;SDS011;3433;48.730;9.108;2023-02-15T09:06:47;41.70;;;22.10;;
6791;SDS011;3433;48.730;9.108;2023-02-15T09:09:35;41.93;;;21.60;;
6791;SDS011;3433;48.730;9.108;2023-02-15T09:12:22;45.97;;;22.40;;
6791;SDS011;3433;48.730;9.108;2023-02-15T09:15:10;41.87;;;20.90;;
6791;SDS011;3433;48.730;9.108;2023-02-15T09:17:57;42.97;;;19.80;;
6791;SDS011;3433;48.730;9.108;2023-02-15T09:20:51;42.20;;;20.10;;
6791;SDS011;3433;48.730;9.108;2023-02-15T09:23:40;45.07;;;22.43;;
6791;SDS011;3433;48.730;9.108;2023-02-15T09:26:29;40.03;;;21.73;;
6791;SDS011;3433;48.730;9.108;2023-02-15T09:29:17;40.43;;;22.07;;
6791;SDS011;3433;48.730;9.108;2023-02-15T09:32:05;37.00;;;21.47;;
6791;SDS011;3433;48.730;9.108;2023-02-15T09:34:52;37.97;;;23.00;;
6791;SDS011;3433;48.730;9.108;2023-02-15T09:37:39;37.47;;;19.97;;
6791;SDS011;3433;48.730;9.108;2023-02-15T09:40:28;31.43;;;20.57;;
6791;SDS011;3433;48.730;9.108;2023-02-15T09:43:25;30.90;;;20.23;;
6791;SDS011;3433;48.730;9.108;2023-02-15T09:46:26;46.37;;;21.00;;
6791;SDS011;3433;48.730;9.108;2023-02-15T09:49:25;48.93;;;21.47;;
6791;SDS011;3433;48.730;9.108;2023-02-15T09:52:31;41.23;;;21.53;;
6791;SDS011;3433;48.730;9.108;2023-02-15T09:55:28;41.00;;;20.57;;
6791;SDS011;3433;48.730;9.108;2023-02-15T09:58:30;41.00;;;19.80;;
6791;SDS011;3433;48.730;9.108;2023-02-15T10:01:28;39.27;;;21.00;;
6791;SDS011;3433;48.730;9.108;2023-02-15T10:04:31;36.17;;;19.23;;
6791;SDS011;3433;48.730;9.108;2023-02-15T10:07:37;34.97;;;18.73;;
6791;SDS011;3433;48.730;9.108;2023-02-15T10:10:40;43.43;;;19.37;;
6791;SDS011;3433;48.730;9.108;2023-02-15T10:13:36;34.00;;;19.00;;
6791;SDS011;3433;48.730;9.108;2023-02-15T10:16:33;32.30;;;18.60;;
6791;SDS011;3433;48.730;9.108;2023-02-15T10:19:32;30.63;;;18.40;;
6791;SDS011;3433;48.730;9.108;2023-02-15T10:22:29;34.90;;;18.43;;
6791;SDS011;3433;48.730;9.108;2023-02-15T10:25:31;30.40;;;17.50;;
6791;SDS011;3433;48.730;9.108;2023-02-15T10:28:28;33.00;;;17.53;;
6791;SDS011;3433;48.730;9.108;2023-02-15T10:31:26;24.37;;;17.50;;
6791;SDS011;3433;48.730;9.108;2023-02-15T10:34:18;28.60;;;17.80;;
6791;SDS011;3433;48.730;9.108;2023-02-15T10:37:25;32.60;;;18.27;;
6791;SDS011;3433;48.730;9.108;2023-02-15T10:40:33;27.57;;;18.50;;
6791;SDS011;3433;48.730;9.108;2023-02-15T10:43:35;33.93;;;17.87;;
6791;SDS011;3433;48.730;9.108;2023-02-15T10:46:38;28.83;;;18.17;;
6791;SDS011;3433;48.730;9.108;2023-02-15T10:49:41;26.90;;;18.47;;
6791;SDS011;3433;48.730;9.108;2023-02-15T10:52:58;34.40;;;18.63;;
6791;SDS011;3433;48.730;9.108;2023-02-15T10:56:02;27.50;;;18.83;;
6791;SDS011;3433;48.730;9.108;2023-02-15T10:59:06;31.77;;;18.57;;
6791;SDS011;3433;48.730;9.108;2023-02-15T11:02:15;31.53;;;18.70;;
6791;SDS011;3433;48.730;9.108;2023-02-15T11:05:16;30.87;;;18.40;;
6791;SDS011;3433;48.730;9.108;2023-02-15T11:08:13;27.40;;;17.40;;
6791;SDS011;3433;48.730;9.108;2023-02-15T11:11:02;29.27;;;19.27;;
6791;SDS011;3433;48.730;9.108;2023-02-15T11:13:54;27.63;;;17.40;;
6791;SDS011;3433;48.730;9.108;2023-02-15T11:16:48;31.63;;;17.63;;
6791;SDS011;3433;48.730;9.108;2023-02-15T11:19:40;28.57;;;17.63;;
6791;SDS011;3433;48.730;9.108;2023-02-15T11:22:33;31.73;;;18.47;;
6791;SDS011;3433;48.730;9.108;2023-02-15T11:25:22;30.07;;;19.00;;
6791;SDS011;3433;48.730;9.108;2023-02-15T11:28:17;32.17;;;18.83;;
6791;SDS011;3433;48.730;9.108;2023-02-15T11:31:11;26.33;;;18.40;;
6791;SDS011;3433;48.730;9.108;2023-02-15T11:34:04;30.07;;;18.10;;
6791;SDS011;3433;48.730;9.108;2023-02-15T11:37:01;28.23;;;16.97;;
6791;SDS011;3433;48.730;9.108;2023-02-15T11:39:54;31.73;;;18.97;;
6791;SDS011;3433;48.730;9.108;2023-02-15T11:42:42;28.67;;;17.90;;
6791;SDS011;3433;48.730;9.108;2023-02-15T11:45:31;25.27;;;18.40;;
6791;SDS011;3433;48.730;9.108;2023-02-15T11:48:19;24.63;;;18.03;;
6791;SDS011;3433;48.730;9.108;2023-02-15T11:51:09;28.90;;;17.63;;
6791;SDS011;3433;48.730;9.108;2023-02-15T11:54:01;31.90;;;19.33;;
6791;SDS011;3433;48.730;9.108;2023-02-15T11:56:49;34.00;;;18.40;;
6791;SDS011;3433;48.730;9.108;2023-02-15T11:59:37;26.57;;;18.33;;
6791;SDS011;3433;48.730;9.108;2023-02-15T12:02:27;32.80;;;19.70;;
6791;SDS011;3433;48.730;9.108;2023-02-15T12:05:17;32.90;;;18.43;;
6791;SDS011;3433;48.730;9.108;2023-02-15T12:08:13;27.63;;;20.50;;
6791;SDS011;3433;48.730;9.108;2023-02-15T12:11:05;30.13;;;20.40;;
6791;SDS011;3433;48.730;9.108;2023-02-15T12:13:58;31.00;;;21.00;;
6791;SDS011;3433;48.730;9.108;2023-02-15T12:16:46;27.23;;;20.10;;
6791;SDS011;3433;48.730;9.108;2023-02-15T12:19:36;27.67;;;19.60;;
6791;SDS011;3433;48.730;9.108;2023-02-15T12:22:29;30.40;;;20.67;;
6791;SDS011;3433;48.730;9.108;2023-02-15T12:25:22;33.83;;;21.80;;
6791;SDS011;3433;48.730;9.108;2023-02-15T12:28:22;34.93;;;22.63;;
6791;SDS011;3433;48.730;9.108;2023-02-15T12:31:19;31.63;;;22.03;;
6791;SDS011;3433;48.730;9.108;2023-02-15T12:34:09;32.37;;;23.43;;
6791;SDS011;3433;48.730;9.108;2023-02-15T12:37:00;31.40;;;21.93;;
6791;SDS011;3433;48.730;9.108;2023-02-15T12:39:53;37.73;;;22.47;;
6791;SDS011;3433;48.730;9.108;2023-02-15T12:42:44;33.17;;;22.30;;
6791;SDS011;3433;48.730;9.108;2023-02-15T12:45:33;31.63;;;22.73;;
6791;SDS011;3433;48.730;9.108;2023-02-15T12:48:21;35.77;;;21.13;;
6791;SDS011;3433;48.730;9.108;2023-02-15T12:51:09;28.67;;;21.80;;
6791;SDS011;3433;48.730;9.108;2023-02-15T12:54:04;30.10;;;20.93;;
6791;SDS011;3433;48.730;9.108;2023-02-15T13:00:47;35.17;;;22.00;;
6791;SDS011;3433;48.730;9.108;2023-02-15T13:03:57;31.30;;;22.07;;
6791;SDS011;3433;48.730;9.108;2023-02-15T13:06:46;29.73;;;21.30;;
6791;SDS011;3433;48.730;9.108;2023-02-15T13:09:37;31.60;;;21.73;;
6791;SDS011;3433;48.730;9.108;2023-02-15T13:12:27;34.80;;;22.57;;
6791;SDS011;3433;48.730;9.108;2023-02-15T13:15:22;31.53;;;21.60;;
6791;SDS011;3433;48.730;9.108;2023-02-15T13:18:14;31.47;;;22.67;;
6791;SDS011;3433;48.730;9.108;2023-02-15T13:21:06;31.97;;;20.70;;
6791;SDS011;3433;48.730;9.108;2023-02-15T13:23:59;30.93;;;21.90;;
6791;SDS011;3433;48.730;9.108;2023-02-15T13:26:50;32.07;;;21.80;;
6791;SDS011;3433;48.730;9.108;2023-02-15T13:29:42;34.30;;;22.63;;
6791;SDS011;3433;48.730;9.108;2023-02-15T13:32:32;27.80;;;21.63;;
6791;SDS011;3433;48.730;9.108;2023-02-15T13:35:25;26.27;;;20.20;;
6791;SDS011;3433;48.730;9.108;2023-02-15T13:38:25;28.67;;;19.90;;
6791;SDS011;3433;48.730;9.108;2023-02-15T13:41:33;30.73;;;21.73;;
6791;SDS011;3433;48.730;9.108;2023-02-15T13:44:44;31.80;;;21.37;;
6791;SDS011;3433;48.730;9.108;2023-02-15T13:47:48;25.33;;;19.50;;
6791;SDS011;3433;48.730;9.108;2023-02-15T13:50:51;24.63;;;19.23;;
6791;SDS011;3433;48.730;9.108;2023-02-15T13:56:58;34.93;;;21.30;;
6791;SDS011;3433;48.730;9.108;2023-02-15T14:00:01;28.00;;;20.00;;
6791;SDS011;3433;48.730;9.108;2023-02-15T14:03:09;31.87;;;21.00;;
6791;SDS011;3433;48.730;9.108;2023-02-15T14:06:16;27.10;;;19.23;;
6791;SDS011;3433;48.730;9.108;2023-02-15T14:09:18;25.50;;;18.13;;
6791;SDS011;3433;48.730;9.108;2023-02-15T14:12:19;28.37;;;18.23;;
6791;SDS011;3433;48.730;9.108;2023-02-15T14:15:32;22.67;;;15.97;;
6791;SDS011;3433;48.730;9.108;2023-02-15T14:18:30;22.33;;;15.87;;
6791;SDS011;3433;48.730;9.108;2023-02-15T14:21:26;23.50;;;17.50;;
6791;SDS011;3433;48.730;9.108;2023-02-15T14:24:20;30.40;;;17.80;;
6791;SDS011;3433;48.730;9.108;2023-02-15T14:27:16;23.47;;;16.40;;
6791;SDS011;3433;48.730;9.108;2023-02-15T14:30:14;23.20;;;16.37;;
6791;SDS011;3433;48.730;9.108;2023-02-15T14:33:05;21.77;;;16.20;;
6791;SDS011;3433;48.730;9.108;2023-02-15T14:35:54;23.17;;;16.23;;
6791;SDS011;3433;48.730;9.108;2023-02-15T14:38:48;22.40;;;15.70;;
6791;SDS011;3433;48.730;9.108;2023-02-15T14:41:44;21.10;;;15.00;;
6791;SDS011;3433;48.730;9.108;2023-02-15T14:44:38;23.60;;;14.90;;
6791;SDS011;3433;48.730;9.108;2023-02-15T14:47:31;22.30;;;14.47;;
6791;SDS011;3433;48.730;9.108;2023-02-15T14:50:40;25.70;;;14.83;;
6791;SDS011;3433;48.730;9.108;2023-02-15T14:56:28;18.77;;;13.43;;
6791;SDS011;3433;48.730;9.108;2023-02-15T14:59:16;26.30;;;15.70;;
6791;SDS011;3433;48.730;9.108;2023-02-15T15:02:09;24.27;;;14.10;;
6791;SDS011;3433;48.730;9.108;2023-02-15T15:05:02;23.77;;;14.80;;
6791;SDS011;3433;48.730;9.108;2023-02-15T15:07:54;19.93;;;14.70;;
6791;SDS011;3433;48.730;9.108;2023-02-15T15:10:44;20.80;;;15.63;;
6791;SDS011;3433;48.730;9.108;2023-02-15T15:13:53;23.63;;;16.30;;
6791;SDS011;3433;48.730;9.108;2023-02-15T15:16:51;22.87;;;17.10;;
6791;SDS011;3433;48.730;9.108;2023-02-15T15:23:04;25.70;;;17.20;;
6791;SDS011;3433;48.730;9.108;2023-02-15T15:26:29;27.30;;;18.13;;
6791;SDS011;3433;48.730;9.108;2023-02-15T15:29:29;29.73;;;17.93;;
6791;SDS011;3433;48.730;9.108;2023-02-15T15:32:26;26.80;;;18.17;;
6791;SDS011;3433;48.730;9.108;2023-02-15T15:35:19;26.10;;;18.27;;
6791;SDS011;3433;48.730;9.108;2023-02-15T15:38:20;29.10;;;18.30;;
6791;SDS011;3433;48.730;9.108;2023-02-15T15:41:18;28.87;;;17.83;;
6791;SDS011;3433;48.730;9.108;2023-02-15T15:44:21;22.03;;;16.27;;
6791;SDS011;3433;48.730;9.108;2023-02-15T15:47:42;23.23;;;16.60;;
6791;SDS011;3433;48.730;9.108;2023-02-15T15:50:45;24.10;;;15.90;;
6791;SDS011;3433;48.730;9.108;2023-02-15T15:53:38;26.30;;;16.30;;
6791;SDS011;3433;48.730;9.108;2023-02-15T15:56:29;21.80;;;15.37;;
6791;SDS011;3433;48.730;9.108;2023-02-15T15:59:19;23.27;;;15.13;;
6791;SDS011;3433;48.730;9.108;2023-02-15T16:02:11;24.53;;;16.93;;
6791;SDS011;3433;48.730;9.108;2023-02-15T16:05:09;29.43;;;17.37;;
6791;SDS011;3433;48.730;9.108;2023-02-15T16:07:59;26.47;;;17.50;;
6791;SDS011;3433;48.730;9.108;2023-02-15T16:10:46;26.43;;;15.80;;
6791;SDS011;3433;48.730;9.108;2023-02-15T16:13:33;29.90;;;16.90;;
6791;SDS011;3433;48.730;9.108;2023-02-15T16:16:20;27.73;;;16.60;;
6791;SDS011;3433;48.730;9.108;2023-02-15T16:19:15;26.93;;;16.63;;
6791;SDS011;3433;48.730;9.108;2023-02-15T16:22:09;27.90;;;17.53;;
6791;SDS011;3433;48.730;9.108;2023-02-15T16:25:18;34.20;;;18.17;;
6791;SDS011;3433;48.730;9.108;2023-02-15T16:28:13;29.03;;;17.20;;
6791;SDS011;3433;48.730;9.108;2023-02-15T16:31:07;25.47;;;17.57;;
6791;SDS011;3433;48.730;9.108;2023-02-15T16:33:58;27.73;;;17.90;;
6791;SDS011;3433;48.730;9.108;2023-02-15T16:36:46;26.30;;;15.90;;
6791;SDS011;3433;48.730;9.108;2023-02-15T16:39:35;24.33;;;18.30;;
6791;SDS011;3433;48.730;9.108;2023-02-15T16:42:27;27.40;;;16.77;;
6791;SDS011;3433;48.730;9.108;2023-02-15T16:45:16;29.07;;;18.33;;
6791;SDS011;3433;48.730;9.108;2023-02-15T16:48:06;26.10;;;16.80;;
6791;SDS011;3433;48.730;9.108;2023-02-15T16:50:58;28.20;;;16.73;;
6791;SDS011;3433;48.730;9.108;2023-02-15T16:53:46;23.00;;;13.87;;
6791;SDS011;3433;48.730;9.108;2023-02-15T16:56:35;22.80;;;13.80;;
6791;SDS011;3433;48.730;9.108;2023-02-15T16:59:28;23.23;;;14.47;;
6791;SDS011;3433;48.730;9.108;2023-02-15T17:02:20;20.47;;;13.97;;
6791;SDS011;3433;48.730;9.108;2023-02-15T17:05:14;21.80;;;13.83;;
6791;SDS011;3433;48.730;9.108;2023-02-15T17:08:06;20.50;;;13.20;;
6791;SDS011;3433;48.730;9.108;2023-02-15T17:11:04;19.77;;;12.20;;
6791;SDS011;3433;48.730;9.108;2023-02-15T17:14:17;20.70;;;13.17;;
6791;SDS011;3433;48.730;9.108;2023-02-15T17:17:07;18.10;;;12.27;;
6791;SDS011;3433;48.730;9.108;2023-02-15T17:19:58;17.83;;;11.20;;
6791;SDS011;3433;48.730;9.108;2023-02-15T17:22:46;19.27;;;12.27;;
6791;SDS011;3433;48.730;9.108;2023-02-15T17:25:35;19.73;;;12.70;;
6791;SDS011;3433;48.730;9.108;2023-02-15T17:28:28;19.20;;;12.67;;
6791;SDS011;3433;48.730;9.108;2023-02-15T17:31:19;21.43;;;13.50;;
6791;SDS011;3433;48.730;9.108;2023-02-15T17:34:09;21.90;;;13.83;;
6791;SDS011;3433;48.730;9.108;2023-02-15T17:37:43;22.00;;;13.10;;
6791;SDS011;3433;48.730;9.108;2023-02-15T17:40:32;21.00;;;12.43;;